sensor_id;sensor_type;location;lat;lon;timestamp;temperature;humidity
10889;DHT22;5497;51.388;6.780;2022-12-29T00:01:26;11.60;99.90
10889;DHT22;5497;51.388;6.780;2022-12-29T00:03:52;11.60;99.90
10889;DHT22;5497;51.388;6.780;2022-12-29T00:06:20;11.60;99.90
10889;DHT22;5497;51.388;6.780;2022-12-29T00:08:48;11.60;99.90
10889;DHT22;5497;51.388;6.780;2022-12-29T00:11:16;11.50;99.90
10889;DHT22;5497;51.388;6.780;2022-12-29T00:13:44;11.50;99.90
10889;DHT22;5497;51.388;6.780;2022-12-29T00:16:29;11.40;99.90
10889;DHT22;5497;51.388;6.780;2022-12-29T00:18:56;11.50;99.90
10889;DHT22;5497;51.388;6.780;2022-12-29T00:21:23;12.60;99.90
10889;DHT22;5497;51.388;6.780;2022-12-29T00:24:10;11.40;99.90
10889;DHT22;5497;51.388;6.780;2022-12-29T00:26:57;11.50;99.90
10889;DHT22;5497;51.388;6.780;2022-12-29T00:29:42;11.50;99.90
10889;DHT22;5497;51.388;6.780;2022-12-29T00:32:26;11.60;99.90
10889;DHT22;5497;51.388;6.780;2022-12-29T00:35:11;12.40;99.90
10889;DHT22;5497;51.388;6.780;2022-12-29T00:37:39;11.60;99.90
10889;DHT22;5497;51.388;6.780;2022-12-29T00:40:26;11.70;99.90
10889;DHT22;5497;51.388;6.780;2022-12-29T00:43:10;11.70;99.90
10889;DHT22;5497;51.388;6.780;2022-12-29T00:45:54;11.70;99.90
10889;DHT22;5497;51.388;6.780;2022-12-29T00:48:21;11.70;99.90
10889;DHT22;5497;51.388;6.780;2022-12-29T00:51:02;11.60;99.90
10889;DHT22;5497;51.388;6.780;2022-12-29T00:53:29;11.50;99.90
10889;DHT22;5497;51.388;6.780;2022-12-29T00:55:57;11.40;99.90
10889;DHT22;5497;51.388;6.780;2022-12-29T00:58:26;11.30;99.90
10889;DHT22;5497;51.388;6.780;2022-12-29T01:00:52;11.30;99.90
10889;DHT22;5497;51.388;6.780;2022-12-29T01:03:26;11.30;99.90
10889;DHT22;5497;51.388;6.780;2022-12-29T01:05:53;10.90;99.90
10889;DHT22;5497;51.388;6.780;2022-12-29T01:08:20;11.30;99.90
10889;DHT22;5497;51.388;6.780;2022-12-29T01:10:58;11.30;99.90
10889;DHT22;5497;51.388;6.780;2022-12-29T01:13:24;11.40;99.90
10889;DHT22;5497;51.388;6.780;2022-12-29T01:15:51;11.50;99.90
10889;DHT22;5497;51.388;6.780;2022-12-29T01:18:18;11.50;99.90
10889;DHT22;5497;51.388;6.780;2022-12-29T01:20:45;11.60;99.90
10889;DHT22;5497;51.388;6.780;2022-12-29T01:23:11;11.70;99.90
10889;DHT22;5497;51.388;6.780;2022-12-29T01:25:38;11.80;99.90
10889;DHT22;5497;51.388;6.780;2022-12-29T01:28:06;11.90;99.90
10889;DHT22;5497;51.388;6.780;2022-12-29T01:30:34;13.10;99.90
10889;DHT22;5497;51.388;6.780;2022-12-29T01:33:00;12.00;99.90
10889;DHT22;5497;51.388;6.780;2022-12-29T01:35:27;12.00;99.90
10889;DHT22;5497;51.388;6.780;2022-12-29T01:37:57;12.10;99.90
10889;DHT22;5497;51.388;6.780;2022-12-29T01:40:24;12.10;99.90
10889;DHT22;5497;51.388;6.780;2022-12-29T01:42:50;12.10;99.90
10889;DHT22;5497;51.388;6.780;2022-12-29T01:45:19;12.10;99.90
10889;DHT22;5497;51.388;6.780;2022-12-29T01:47:46;12.10;99.90
10889;DHT22;5497;51.388;6.780;2022-12-29T01:50:15;12.20;99.90
10889;DHT22;5497;51.388;6.780;2022-12-29T01:52:44;12.20;99.90
10889;DHT22;5497;51.388;6.780;2022-12-29T01:55:14;12.20;99.90
10889;DHT22;5497;51.388;6.780;2022-12-29T01:57:45;12.20;99.90
10889;DHT22;5497;51.388;6.780;2022-12-29T02:00:13;12.20;99.90
10889;DHT22;5497;51.388;6.780;2022-12-29T02:02:42;12.30;99.90
10889;DHT22;5497;51.388;6.780;2022-12-29T02:05:10;12.30;99.90
10889;DHT22;5497;51.388;6.780;2022-12-29T02:07:37;12.20;99.90
10889;DHT22;5497;51.388;6.780;2022-12-29T02:10:05;11.80;99.90
10889;DHT22;5497;51.388;6.780;2022-12-29T02:12:32;12.20;99.90
10889;DHT22;5497;51.388;6.780;2022-12-29T02:14:59;12.20;99.90
10889;DHT22;5497;51.388;6.780;2022-12-29T02:17:31;12.20;99.90
10889;DHT22;5497;51.388;6.780;2022-12-29T02:20:07;13.70;99.90
10889;DHT22;5497;51.388;6.780;2022-12-29T02:22:37;12.20;99.90
10889;DHT22;5497;51.388;6.780;2022-12-29T02:25:19;12.30;99.90
10889;DHT22;5497;51.388;6.780;2022-12-29T02:28:07;12.30;99.90
10889;DHT22;5497;51.388;6.780;2022-12-29T02:30:44;12.30;99.90
10889;DHT22;5497;51.388;6.780;2022-12-29T02:33:14;12.30;99.90
10889;DHT22;5497;51.388;6.780;2022-12-29T02:35:47;12.30;99.90
10889;DHT22;5497;51.388;6.780;2022-12-29T02:38:17;12.30;99.90
10889;DHT22;5497;51.388;6.780;2022-12-29T02:40:48;13.10;99.90
10889;DHT22;5497;51.388;6.780;2022-12-29T02:43:19;12.30;99.90
10889;DHT22;5497;51.388;6.780;2022-12-29T02:45:51;12.20;99.90
10889;DHT22;5497;51.388;6.780;2022-12-29T02:48:20;12.20;99.90
10889;DHT22;5497;51.388;6.780;2022-12-29T02:50:50;12.10;99.90
10889;DHT22;5497;51.388;6.780;2022-12-29T02:53:19;12.10;99.90
10889;DHT22;5497;51.388;6.780;2022-12-29T02:56:07;12.10;99.90
10889;DHT22;5497;51.388;6.780;2022-12-29T02:58:33;12.20;99.90
10889;DHT22;5497;51.388;6.780;2022-12-29T03:01:07;12.20;99.90
10889;DHT22;5497;51.388;6.780;2022-12-29T03:03:41;12.20;99.90
10889;DHT22;5497;51.388;6.780;2022-12-29T03:06:18;13.10;99.90
10889;DHT22;5497;51.388;6.780;2022-12-29T03:08:49;12.30;99.90
10889;DHT22;5497;51.388;6.780;2022-12-29T03:11:20;12.30;99.90
10889;DHT22;5497;51.388;6.780;2022-12-29T03:14:08;12.50;99.90
10889;DHT22;5497;51.388;6.780;2022-12-29T03:16:59;12.30;99.90
10889;DHT22;5497;51.388;6.780;2022-12-29T03:19:28;12.30;99.90
10889;DHT22;5497;51.388;6.780;2022-12-29T03:21:57;12.30;99.90
10889;DHT22;5497;51.388;6.780;2022-12-29T03:24:52;12.30;99.90
10889;DHT22;5497;51.388;6.780;2022-12-29T03:27:22;12.30;99.90
10889;DHT22;5497;51.388;6.780;2022-12-29T03:29:52;12.30;99.90
10889;DHT22;5497;51.388;6.780;2022-12-29T03:32:23;12.40;99.90
10889;DHT22;5497;51.388;6.780;2022-12-29T03:34:51;13.60;99.90
10889;DHT22;5497;51.388;6.780;2022-12-29T03:37:20;12.40;99.90
10889;DHT22;5497;51.388;6.780;2022-12-29T03:39:48;13.20;99.90
10889;DHT22;5497;51.388;6.780;2022-12-29T03:42:16;12.40;99.90
10889;DHT22;5497;51.388;6.780;2022-12-29T03:44:43;12.40;99.90
10889;DHT22;5497;51.388;6.780;2022-12-29T03:47:13;12.40;99.90
10889;DHT22;5497;51.388;6.780;2022-12-29T03:49:42;12.40;99.90
10889;DHT22;5497;51.388;6.780;2022-12-29T03:52:11;12.40;99.90
10889;DHT22;5497;51.388;6.780;2022-12-29T03:54:42;12.40;99.90
10889;DHT22;5497;51.388;6.780;2022-12-29T03:57:08;12.40;99.90
10889;DHT22;5497;51.388;6.780;2022-12-29T03:59:46;12.40;99.90
10889;DHT22;5497;51.388;6.780;2022-12-29T04:02:12;13.20;99.90
10889;DHT22;5497;51.388;6.780;2022-12-29T04:04:40;12.40;99.90
10889;DHT22;5497;51.388;6.780;2022-12-29T04:07:08;12.40;99.90
10889;DHT22;5497;51.388;6.780;2022-12-29T04:09:35;12.50;99.90
10889;DHT22;5497;51.388;6.780;2022-12-29T04:12:02;12.40;99.90
10889;DHT22;5497;51.388;6.780;2022-12-29T04:14:29;12.40;99.90
10889;DHT22;5497;51.388;6.780;2022-12-29T04:16:56;12.40;99.90
10889;DHT22;5497;51.388;6.780;2022-12-29T04:19:23;12.40;99.90
10889;DHT22;5497;51.388;6.780;2022-12-29T04:21:49;12.70;99.90
10889;DHT22;5497;51.388;6.780;2022-12-29T04:24:18;12.40;99.90
10889;DHT22;5497;51.388;6.780;2022-12-29T04:26:48;12.40;99.90
10889;DHT22;5497;51.388;6.780;2022-12-29T04:29:35;12.20;99.90
10889;DHT22;5497;51.388;6.780;2022-12-29T04:32:08;12.40;99.90
10889;DHT22;5497;51.388;6.780;2022-12-29T04:34:40;12.50;99.90
10889;DHT22;5497;51.388;6.780;2022-12-29T04:37:07;12.40;99.90
10889;DHT22;5497;51.388;6.780;2022-12-29T04:39:35;12.50;99.90
10889;DHT22;5497;51.388;6.780;2022-12-29T04:42:03;12.50;99.90
10889;DHT22;5497;51.388;6.780;2022-12-29T04:44:31;12.50;99.90
10889;DHT22;5497;51.388;6.780;2022-12-29T04:46:58;12.50;99.90
10889;DHT22;5497;51.388;6.780;2022-12-29T04:49:43;12.50;99.90
10889;DHT22;5497;51.388;6.780;2022-12-29T04:52:30;12.50;99.90
10889;DHT22;5497;51.388;6.780;2022-12-29T04:54:58;12.50;99.90
10889;DHT22;5497;51.388;6.780;2022-12-29T04:57:25;12.50;99.90
10889;DHT22;5497;51.388;6.780;2022-12-29T04:59:55;12.50;99.90
10889;DHT22;5497;51.388;6.780;2022-12-29T05:02:21;12.50;99.90
10889;DHT22;5497;51.388;6.780;2022-12-29T05:04:50;13.60;99.90
10889;DHT22;5497;51.388;6.780;2022-12-29T05:07:17;12.50;99.90
10889;DHT22;5497;51.388;6.780;2022-12-29T05:09:44;11.90;99.90
10889;DHT22;5497;51.388;6.780;2022-12-29T05:12:12;12.50;99.90
10889;DHT22;5497;51.388;6.780;2022-12-29T05:14:49;12.50;99.90
10889;DHT22;5497;51.388;6.780;2022-12-29T05:17:16;13.70;99.90
10889;DHT22;5497;51.388;6.780;2022-12-29T05:19:43;12.50;99.90
10889;DHT22;5497;51.388;6.780;2022-12-29T05:22:09;12.50;99.90
10889;DHT22;5497;51.388;6.780;2022-12-29T05:24:37;12.60;99.90
10889;DHT22;5497;51.388;6.780;2022-12-29T05:27:04;12.40;99.90
10889;DHT22;5497;51.388;6.780;2022-12-29T05:29:47;12.40;99.90
10889;DHT22;5497;51.388;6.780;2022-12-29T05:32:14;12.80;99.90
10889;DHT22;5497;51.388;6.780;2022-12-29T05:34:42;12.50;99.90
10889;DHT22;5497;51.388;6.780;2022-12-29T05:37:08;12.50;99.90
10889;DHT22;5497;51.388;6.780;2022-12-29T05:39:37;13.70;99.90
10889;DHT22;5497;51.388;6.780;2022-12-29T05:42:05;13.80;99.90
10889;DHT22;5497;51.388;6.780;2022-12-29T05:44:47;13.90;99.90
10889;DHT22;5497;51.388;6.780;2022-12-29T05:47:23;12.30;99.90
10889;DHT22;5497;51.388;6.780;2022-12-29T05:50:09;12.20;99.90
10889;DHT22;5497;51.388;6.780;2022-12-29T05:52:54;12.10;99.90
10889;DHT22;5497;51.388;6.780;2022-12-29T05:55:21;12.00;99.90
10889;DHT22;5497;51.388;6.780;2022-12-29T05:57:50;12.00;99.90
10889;DHT22;5497;51.388;6.780;2022-12-29T06:00:19;11.90;99.90
10889;DHT22;5497;51.388;6.780;2022-12-29T06:02:46;11.80;99.90
10889;DHT22;5497;51.388;6.780;2022-12-29T06:05:14;11.50;99.90
10889;DHT22;5497;51.388;6.780;2022-12-29T06:07:41;11.70;99.90
10889;DHT22;5497;51.388;6.780;2022-12-29T06:10:08;11.60;99.90
10889;DHT22;5497;51.388;6.780;2022-12-29T06:12:53;11.50;99.90
10889;DHT22;5497;51.388;6.780;2022-12-29T06:15:21;11.50;99.90
10889;DHT22;5497;51.388;6.780;2022-12-29T06:17:49;11.40;99.90
10889;DHT22;5497;51.388;6.780;2022-12-29T06:20:16;11.30;99.90
10889;DHT22;5497;51.388;6.780;2022-12-29T06:22:43;11.30;99.90
10889;DHT22;5497;51.388;6.780;2022-12-29T06:25:12;11.20;99.90
10889;DHT22;5497;51.388;6.780;2022-12-29T06:27:41;11.20;99.90
10889;DHT22;5497;51.388;6.780;2022-12-29T06:30:08;11.20;99.90
10889;DHT22;5497;51.388;6.780;2022-12-29T06:32:38;11.30;99.90
10889;DHT22;5497;51.388;6.780;2022-12-29T06:35:08;11.40;99.90
10889;DHT22;5497;51.388;6.780;2022-12-29T06:37:39;11.50;99.90
10889;DHT22;5497;51.388;6.780;2022-12-29T06:40:06;11.50;99.90
10889;DHT22;5497;51.388;6.780;2022-12-29T06:43:12;11.60;99.90
10889;DHT22;5497;51.388;6.780;2022-12-29T06:45:38;11.70;99.90
10889;DHT22;5497;51.388;6.780;2022-12-29T06:48:07;11.80;99.90
10889;DHT22;5497;51.388;6.780;2022-12-29T06:50:34;11.90;99.90
10889;DHT22;5497;51.388;6.780;2022-12-29T06:53:00;11.90;99.90
10889;DHT22;5497;51.388;6.780;2022-12-29T06:55:27;11.90;99.90
10889;DHT22;5497;51.388;6.780;2022-12-29T06:57:54;11.90;99.90
10889;DHT22;5497;51.388;6.780;2022-12-29T07:00:21;11.90;99.90
10889;DHT22;5497;51.388;6.780;2022-12-29T07:02:48;11.90;99.90
10889;DHT22;5497;51.388;6.780;2022-12-29T07:05:16;11.90;99.90
10889;DHT22;5497;51.388;6.780;2022-12-29T07:07:42;11.90;99.90
10889;DHT22;5497;51.388;6.780;2022-12-29T07:10:09;11.90;99.90
10889;DHT22;5497;51.388;6.780;2022-12-29T07:12:36;12.00;99.90
10889;DHT22;5497;51.388;6.780;2022-12-29T07:15:03;13.30;99.90
10889;DHT22;5497;51.388;6.780;2022-12-29T07:17:30;12.00;99.90
10889;DHT22;5497;51.388;6.780;2022-12-29T07:19:56;12.00;99.90
10889;DHT22;5497;51.388;6.780;2022-12-29T07:22:24;11.40;99.90
10889;DHT22;5497;51.388;6.780;2022-12-29T07:24:51;12.00;99.90
10889;DHT22;5497;51.388;6.780;2022-12-29T07:27:18;13.40;99.90
10889;DHT22;5497;51.388;6.780;2022-12-29T07:29:44;12.00;99.90
10889;DHT22;5497;51.388;6.780;2022-12-29T07:32:11;12.00;99.90
10889;DHT22;5497;51.388;6.780;2022-12-29T07:34:38;12.10;99.90
10889;DHT22;5497;51.388;6.780;2022-12-29T07:37:05;12.00;99.90
10889;DHT22;5497;51.388;6.780;2022-12-29T07:39:33;12.00;99.90
10889;DHT22;5497;51.388;6.780;2022-12-29T07:42:00;12.00;99.90
10889;DHT22;5497;51.388;6.780;2022-12-29T07:44:35;12.00;99.90
10889;DHT22;5497;51.388;6.780;2022-12-29T07:47:15;12.00;99.90
10889;DHT22;5497;51.388;6.780;2022-12-29T07:49:42;11.80;99.90
10889;DHT22;5497;51.388;6.780;2022-12-29T07:52:09;13.20;99.90
10889;DHT22;5497;51.388;6.780;2022-12-29T07:54:37;11.90;99.90
10889;DHT22;5497;51.388;6.780;2022-12-29T07:57:03;12.00;99.90
10889;DHT22;5497;51.388;6.780;2022-12-29T07:59:31;12.00;99.90
10889;DHT22;5497;51.388;6.780;2022-12-29T08:01:57;12.00;99.90
10889;DHT22;5497;51.388;6.780;2022-12-29T08:04:24;12.00;99.90
10889;DHT22;5497;51.388;6.780;2022-12-29T08:06:51;12.70;99.90
10889;DHT22;5497;51.388;6.780;2022-12-29T08:09:18;13.30;99.90
10889;DHT22;5497;51.388;6.780;2022-12-29T08:11:46;12.00;99.90
10889;DHT22;5497;51.388;6.780;2022-12-29T08:14:13;11.40;99.90
10889;DHT22;5497;51.388;6.780;2022-12-29T08:16:40;12.00;99.90
10889;DHT22;5497;51.388;6.780;2022-12-29T08:19:09;11.90;99.90
10889;DHT22;5497;51.388;6.780;2022-12-29T08:21:36;11.90;99.90
10889;DHT22;5497;51.388;6.780;2022-12-29T08:24:03;11.90;99.90
10889;DHT22;5497;51.388;6.780;2022-12-29T08:26:29;10.70;99.90
10889;DHT22;5497;51.388;6.780;2022-12-29T08:28:58;11.90;99.90
10889;DHT22;5497;51.388;6.780;2022-12-29T08:31:24;11.90;99.90
10889;DHT22;5497;51.388;6.780;2022-12-29T08:33:51;12.00;99.90
10889;DHT22;5497;51.388;6.780;2022-12-29T08:36:18;12.00;99.90
10889;DHT22;5497;51.388;6.780;2022-12-29T08:38:45;12.00;99.90
10889;DHT22;5497;51.388;6.780;2022-12-29T08:41:12;12.00;99.90
10889;DHT22;5497;51.388;6.780;2022-12-29T08:43:39;12.00;99.90
10889;DHT22;5497;51.388;6.780;2022-12-29T08:46:07;12.00;99.90
10889;DHT22;5497;51.388;6.780;2022-12-29T08:48:34;12.10;99.90
10889;DHT22;5497;51.388;6.780;2022-12-29T08:51:01;12.00;99.90
10889;DHT22;5497;51.388;6.780;2022-12-29T08:53:28;12.00;99.90
10889;DHT22;5497;51.388;6.780;2022-12-29T08:55:55;11.90;99.90
10889;DHT22;5497;51.388;6.780;2022-12-29T08:58:23;11.90;99.90
10889;DHT22;5497;51.388;6.780;2022-12-29T09:00:51;11.80;99.90
10889;DHT22;5497;51.388;6.780;2022-12-29T09:03:20;11.60;99.90
10889;DHT22;5497;51.388;6.780;2022-12-29T09:05:47;11.50;99.90
10889;DHT22;5497;51.388;6.780;2022-12-29T09:08:14;11.50;99.90
10889;DHT22;5497;51.388;6.780;2022-12-29T09:10:41;11.50;99.90
10889;DHT22;5497;51.388;6.780;2022-12-29T09:13:07;11.60;99.90
10889;DHT22;5497;51.388;6.780;2022-12-29T09:15:34;11.80;99.90
10889;DHT22;5497;51.388;6.780;2022-12-29T09:18:01;11.90;99.90
10889;DHT22;5497;51.388;6.780;2022-12-29T09:20:29;12.10;99.90
10889;DHT22;5497;51.388;6.780;2022-12-29T09:22:56;12.20;99.90
10889;DHT22;5497;51.388;6.780;2022-12-29T09:25:24;12.30;99.90
10889;DHT22;5497;51.388;6.780;2022-12-29T09:27:52;12.00;99.90
10889;DHT22;5497;51.388;6.780;2022-12-29T09:30:19;12.30;99.90
10889;DHT22;5497;51.388;6.780;2022-12-29T09:32:46;12.30;99.90
10889;DHT22;5497;51.388;6.780;2022-12-29T09:35:13;12.30;99.90
10889;DHT22;5497;51.388;6.780;2022-12-29T09:37:41;12.20;99.90
10889;DHT22;5497;51.388;6.780;2022-12-29T09:40:09;12.20;99.90
10889;DHT22;5497;51.388;6.780;2022-12-29T09:42:44;12.20;99.90
10889;DHT22;5497;51.388;6.780;2022-12-29T09:45:13;12.20;99.90
10889;DHT22;5497;51.388;6.780;2022-12-29T09:47:40;12.20;99.90
10889;DHT22;5497;51.388;6.780;2022-12-29T09:50:10;12.20;99.90
10889;DHT22;5497;51.388;6.780;2022-12-29T09:52:44;12.30;99.90
10889;DHT22;5497;51.388;6.780;2022-12-29T09:55:13;12.30;99.90
10889;DHT22;5497;51.388;6.780;2022-12-29T09:57:42;12.30;99.90
10889;DHT22;5497;51.388;6.780;2022-12-29T10:00:12;12.30;99.90
10889;DHT22;5497;51.388;6.780;2022-12-29T10:02:42;12.30;99.90
10889;DHT22;5497;51.388;6.780;2022-12-29T10:05:13;12.30;99.90
10889;DHT22;5497;51.388;6.780;2022-12-29T10:07:45;12.30;99.90
10889;DHT22;5497;51.388;6.780;2022-12-29T10:10:16;12.30;99.90
10889;DHT22;5497;51.388;6.780;2022-12-29T10:12:52;12.30;99.90
10889;DHT22;5497;51.388;6.780;2022-12-29T10:15:31;12.30;99.90
10889;DHT22;5497;51.388;6.780;2022-12-29T10:18:02;12.30;99.90
10889;DHT22;5497;51.388;6.780;2022-12-29T10:20:31;12.30;99.90
10889;DHT22;5497;51.388;6.780;2022-12-29T10:23:07;12.30;99.90
10889;DHT22;5497;51.388;6.780;2022-12-29T10:25:39;12.40;99.90
10889;DHT22;5497;51.388;6.780;2022-12-29T10:28:10;12.40;99.90
10889;DHT22;5497;51.388;6.780;2022-12-29T10:30:42;12.40;99.90
10889;DHT22;5497;51.388;6.780;2022-12-29T10:33:11;12.50;99.90
10889;DHT22;5497;51.388;6.780;2022-12-29T10:35:39;12.50;99.90
10889;DHT22;5497;51.388;6.780;2022-12-29T10:38:12;12.60;99.90
10889;DHT22;5497;51.388;6.780;2022-12-29T10:40:42;12.60;99.90
10889;DHT22;5497;51.388;6.780;2022-12-29T10:43:17;12.60;99.90
10889;DHT22;5497;51.388;6.780;2022-12-29T10:45:47;12.60;99.90
10889;DHT22;5497;51.388;6.780;2022-12-29T10:48:15;12.60;99.90
10889;DHT22;5497;51.388;6.780;2022-12-29T10:50:47;12.60;99.90
10889;DHT22;5497;51.388;6.780;2022-12-29T10:53:18;12.60;99.90
10889;DHT22;5497;51.388;6.780;2022-12-29T10:55:45;12.60;99.90
10889;DHT22;5497;51.388;6.780;2022-12-29T10:58:13;12.60;99.90
10889;DHT22;5497;51.388;6.780;2022-12-29T11:00:40;12.60;99.90
10889;DHT22;5497;51.388;6.780;2022-12-29T11:03:15;12.70;99.90
10889;DHT22;5497;51.388;6.780;2022-12-29T11:05:49;12.70;99.90
10889;DHT22;5497;51.388;6.780;2022-12-29T11:08:20;12.70;99.90
10889;DHT22;5497;51.388;6.780;2022-12-29T11:10:57;12.80;99.90
10889;DHT22;5497;51.388;6.780;2022-12-29T11:13:24;12.80;99.90
10889;DHT22;5497;51.388;6.780;2022-12-29T11:15:51;12.80;99.90
10889;DHT22;5497;51.388;6.780;2022-12-29T11:18:19;12.80;99.90
10889;DHT22;5497;51.388;6.780;2022-12-29T11:20:46;12.80;99.90
10889;DHT22;5497;51.388;6.780;2022-12-29T11:23:24;12.80;99.90
10889;DHT22;5497;51.388;6.780;2022-12-29T11:29:03;12.80;99.90
10889;DHT22;5497;51.388;6.780;2022-12-29T11:31:30;12.80;99.90
10889;DHT22;5497;51.388;6.780;2022-12-29T11:33:57;12.90;99.90
10889;DHT22;5497;51.388;6.780;2022-12-29T11:36:23;13.00;99.90
10889;DHT22;5497;51.388;6.780;2022-12-29T11:38:52;13.00;99.90
10889;DHT22;5497;51.388;6.780;2022-12-29T11:41:21;13.10;99.90
10889;DHT22;5497;51.388;6.780;2022-12-29T11:43:48;13.10;99.90
10889;DHT22;5497;51.388;6.780;2022-12-29T11:46:16;13.10;99.90
10889;DHT22;5497;51.388;6.780;2022-12-29T11:48:44;13.10;99.90
10889;DHT22;5497;51.388;6.780;2022-12-29T11:51:12;13.10;99.90
10889;DHT22;5497;51.388;6.780;2022-12-29T11:53:48;13.10;99.90
10889;DHT22;5497;51.388;6.780;2022-12-29T11:56:32;13.10;99.90
10889;DHT22;5497;51.388;6.780;2022-12-29T12:01:42;13.10;99.90
10889;DHT22;5497;51.388;6.780;2022-12-29T12:04:10;13.10;99.90
10889;DHT22;5497;51.388;6.780;2022-12-29T12:06:41;13.10;99.90
10889;DHT22;5497;51.388;6.780;2022-12-29T12:09:14;13.20;99.90
10889;DHT22;5497;51.388;6.780;2022-12-29T12:11:44;13.20;99.90
10889;DHT22;5497;51.388;6.780;2022-12-29T12:14:11;13.20;99.90
10889;DHT22;5497;51.388;6.780;2022-12-29T12:17:06;13.10;99.90
10889;DHT22;5497;51.388;6.780;2022-12-29T12:19:37;13.10;99.90
10889;DHT22;5497;51.388;6.780;2022-12-29T12:22:07;13.00;99.90
10889;DHT22;5497;51.388;6.780;2022-12-29T12:24:37;13.00;99.90
10889;DHT22;5497;51.388;6.780;2022-12-29T12:27:11;13.10;99.90
10889;DHT22;5497;51.388;6.780;2022-12-29T12:29:41;13.00;99.90
10889;DHT22;5497;51.388;6.780;2022-12-29T12:32:11;13.00;99.90
10889;DHT22;5497;51.388;6.780;2022-12-29T12:34:41;12.90;99.90
10889;DHT22;5497;51.388;6.780;2022-12-29T12:37:18;12.90;99.90
10889;DHT22;5497;51.388;6.780;2022-12-29T12:40:02;12.90;99.90
10889;DHT22;5497;51.388;6.780;2022-12-29T12:42:38;12.90;99.90
10889;DHT22;5497;51.388;6.780;2022-12-29T12:45:18;12.80;99.90
10889;DHT22;5497;51.388;6.780;2022-12-29T12:47:54;12.80;99.90
10889;DHT22;5497;51.388;6.780;2022-12-29T12:50:31;12.80;99.90
10889;DHT22;5497;51.388;6.780;2022-12-29T12:53:07;12.90;99.90
10889;DHT22;5497;51.388;6.780;2022-12-29T12:58:29;12.90;99.90
10889;DHT22;5497;51.388;6.780;2022-12-29T13:01:01;12.80;99.90
10889;DHT22;5497;51.388;6.780;2022-12-29T13:03:34;12.80;99.90
10889;DHT22;5497;51.388;6.780;2022-12-29T13:06:15;12.80;99.90
10889;DHT22;5497;51.388;6.780;2022-12-29T13:08:50;12.80;99.90
10889;DHT22;5497;51.388;6.780;2022-12-29T13:11:23;12.80;99.90
10889;DHT22;5497;51.388;6.780;2022-12-29T13:13:59;12.80;99.90
10889;DHT22;5497;51.388;6.780;2022-12-29T13:16:31;12.80;99.90
10889;DHT22;5497;51.388;6.780;2022-12-29T13:19:02;12.80;99.90
10889;DHT22;5497;51.388;6.780;2022-12-29T13:21:34;12.80;99.90
10889;DHT22;5497;51.388;6.780;2022-12-29T13:24:07;12.80;99.90
10889;DHT22;5497;51.388;6.780;2022-12-29T13:26:38;12.80;99.90
10889;DHT22;5497;51.388;6.780;2022-12-29T13:29:11;12.80;99.90
10889;DHT22;5497;51.388;6.780;2022-12-29T13:31:43;12.70;99.90
10889;DHT22;5497;51.388;6.780;2022-12-29T13:34:17;12.70;99.90
10889;DHT22;5497;51.388;6.780;2022-12-29T13:36:51;12.60;99.90
10889;DHT22;5497;51.388;6.780;2022-12-29T13:39:21;12.60;99.90
10889;DHT22;5497;51.388;6.780;2022-12-29T13:41:48;12.60;99.90
10889;DHT22;5497;51.388;6.780;2022-12-29T13:44:19;12.50;99.90
10889;DHT22;5497;51.388;6.780;2022-12-29T13:46:48;12.50;99.90
10889;DHT22;5497;51.388;6.780;2022-12-29T13:49:17;12.50;99.90
10889;DHT22;5497;51.388;6.780;2022-12-29T13:51:46;12.50;99.90
10889;DHT22;5497;51.388;6.780;2022-12-29T13:54:17;12.50;99.90
10889;DHT22;5497;51.388;6.780;2022-12-29T13:56:47;12.50;99.90
10889;DHT22;5497;51.388;6.780;2022-12-29T13:59:19;12.50;99.90
10889;DHT22;5497;51.388;6.780;2022-12-29T14:01:50;12.40;99.90
10889;DHT22;5497;51.388;6.780;2022-12-29T14:04:21;12.30;99.90
10889;DHT22;5497;51.388;6.780;2022-12-29T14:06:57;12.30;99.90
10889;DHT22;5497;51.388;6.780;2022-12-29T14:09:39;12.30;99.90
10889;DHT22;5497;51.388;6.780;2022-12-29T14:12:18;12.30;99.90
10889;DHT22;5497;51.388;6.780;2022-12-29T14:14:47;12.20;99.90
10889;DHT22;5497;51.388;6.780;2022-12-29T14:17:16;12.10;99.90
10889;DHT22;5497;51.388;6.780;2022-12-29T14:19:45;12.10;99.90
10889;DHT22;5497;51.388;6.780;2022-12-29T14:22:13;12.00;99.90
10889;DHT22;5497;51.388;6.780;2022-12-29T14:24:42;12.10;99.90
10889;DHT22;5497;51.388;6.780;2022-12-29T14:30:03;12.10;99.90
10889;DHT22;5497;51.388;6.780;2022-12-29T14:32:36;12.10;99.90
10889;DHT22;5497;51.388;6.780;2022-12-29T14:38:05;12.10;99.90
10889;DHT22;5497;51.388;6.780;2022-12-29T14:40:32;12.10;99.90
10889;DHT22;5497;51.388;6.780;2022-12-29T14:43:00;12.10;99.90
10889;DHT22;5497;51.388;6.780;2022-12-29T14:45:28;12.10;99.90
10889;DHT22;5497;51.388;6.780;2022-12-29T14:47:56;12.10;99.90
10889;DHT22;5497;51.388;6.780;2022-12-29T14:50:23;12.00;99.90
10889;DHT22;5497;51.388;6.780;2022-12-29T14:52:51;12.00;99.90
10889;DHT22;5497;51.388;6.780;2022-12-29T14:55:29;11.90;99.90
10889;DHT22;5497;51.388;6.780;2022-12-29T14:57:57;11.90;99.90
10889;DHT22;5497;51.388;6.780;2022-12-29T15:00:29;11.90;99.90
10889;DHT22;5497;51.388;6.780;2022-12-29T15:03:01;11.80;99.90
10889;DHT22;5497;51.388;6.780;2022-12-29T15:05:34;11.80;99.90
10889;DHT22;5497;51.388;6.780;2022-12-29T15:08:01;11.80;99.90
10889;DHT22;5497;51.388;6.780;2022-12-29T15:10:32;11.70;99.90
10889;DHT22;5497;51.388;6.780;2022-12-29T15:13:02;11.70;99.90
10889;DHT22;5497;51.388;6.780;2022-12-29T15:15:36;11.70;99.90
10889;DHT22;5497;51.388;6.780;2022-12-29T15:18:11;11.70;99.90
10889;DHT22;5497;51.388;6.780;2022-12-29T15:20:38;11.60;99.90
10889;DHT22;5497;51.388;6.780;2022-12-29T15:23:08;11.60;99.90
10889;DHT22;5497;51.388;6.780;2022-12-29T15:25:36;11.50;99.90
10889;DHT22;5497;51.388;6.780;2022-12-29T15:28:03;11.60;99.90
10889;DHT22;5497;51.388;6.780;2022-12-29T15:30:34;11.50;99.90
10889;DHT22;5497;51.388;6.780;2022-12-29T15:33:01;11.50;99.90
10889;DHT22;5497;51.388;6.780;2022-12-29T15:35:29;11.50;99.90
10889;DHT22;5497;51.388;6.780;2022-12-29T15:37:56;11.50;99.90
10889;DHT22;5497;51.388;6.780;2022-12-29T15:40:24;11.60;99.90
10889;DHT22;5497;51.388;6.780;2022-12-29T15:42:58;11.40;99.90
10889;DHT22;5497;51.388;6.780;2022-12-29T15:45:29;11.40;99.90
10889;DHT22;5497;51.388;6.780;2022-12-29T15:47:58;11.40;99.90
10889;DHT22;5497;51.388;6.780;2022-12-29T15:50:26;11.30;99.90
10889;DHT22;5497;51.388;6.780;2022-12-29T15:52:53;11.30;99.90
10889;DHT22;5497;51.388;6.780;2022-12-29T15:55:21;11.30;99.90
10889;DHT22;5497;51.388;6.780;2022-12-29T15:57:51;11.30;99.90
10889;DHT22;5497;51.388;6.780;2022-12-29T16:00:23;11.30;99.90
10889;DHT22;5497;51.388;6.780;2022-12-29T16:02:51;11.20;99.90
10889;DHT22;5497;51.388;6.780;2022-12-29T16:05:24;11.10;99.90
10889;DHT22;5497;51.388;6.780;2022-12-29T16:07:58;11.00;99.90
10889;DHT22;5497;51.388;6.780;2022-12-29T16:10:26;10.90;99.90
10889;DHT22;5497;51.388;6.780;2022-12-29T16:13:00;10.80;99.90
10889;DHT22;5497;51.388;6.780;2022-12-29T16:15:28;10.80;99.90
10889;DHT22;5497;51.388;6.780;2022-12-29T16:17:55;10.60;99.90
10889;DHT22;5497;51.388;6.780;2022-12-29T16:20:24;10.60;99.90